createdAt,value
2023-02-11T00:00:56.684Z,1.05
2023-02-11T00:03:23.937Z,1.04
2023-02-11T00:06:01.079Z,1.03
2023-02-11T00:08:27.786Z,1.02
2023-02-11T00:10:56.226Z,1.01
2023-02-11T00:13:23.359Z,0.97
2023-02-11T00:15:52.928Z,0.94
2023-02-11T00:18:20.102Z,0.92
2023-02-11T00:20:46.868Z,0.87
2023-02-11T00:23:14.073Z,0.84
2023-02-11T00:25:41.670Z,0.81
2023-02-11T00:28:09.086Z,0.79
2023-02-11T00:30:36.265Z,0.76
2023-02-11T00:33:03.487Z,0.74
2023-02-11T00:35:32.001Z,0.71
2023-02-11T00:38:00.827Z,0.67
2023-02-11T00:40:27.629Z,0.64
2023-02-11T00:42:54.671Z,0.60
2023-02-11T00:45:21.503Z,0.56
2023-02-11T00:47:48.439Z,0.54
2023-02-11T00:50:15.207Z,0.52
2023-02-11T00:52:42.658Z,0.52
2023-02-11T00:55:09.394Z,0.51
2023-02-11T00:57:36.616Z,0.49
2023-02-11T01:00:04.959Z,0.48
2023-02-11T01:02:31.929Z,0.46
2023-02-11T01:04:59.655Z,0.45
2023-02-11T01:07:27.567Z,0.46
2023-02-11T01:09:54.840Z,0.45
2023-02-11T01:12:22.049Z,0.45
2023-02-11T01:14:48.938Z,0.45
2023-02-11T01:17:17.856Z,0.47
2023-02-11T01:19:44.641Z,0.56
2023-02-11T01:22:11.302Z,0.67
2023-02-11T01:24:38.644Z,0.77
2023-02-11T01:27:07.424Z,0.85
2023-02-11T01:29:34.092Z,0.90
2023-02-11T01:32:01.084Z,0.93
2023-02-11T01:34:28.245Z,0.92
2023-02-11T01:36:58.584Z,0.88
2023-02-11T01:39:26.202Z,0.86
2023-02-11T01:41:53.472Z,0.84
2023-02-11T01:44:30.743Z,0.80
2023-02-11T01:46:58.843Z,0.74
2023-02-11T01:49:30.688Z,0.70
2023-02-11T01:52:00.858Z,0.67
2023-02-11T01:54:55.000Z,0.65
2023-02-11T01:57:24.275Z,0.64
2023-02-11T02:00:15.080Z,0.60
2023-02-11T02:03:02.412Z,0.56
2023-02-11T02:05:46.023Z,0.55
2023-02-11T02:08:29.222Z,0.55
2023-02-11T02:11:00.518Z,0.53
2023-02-11T02:13:28.420Z,0.53
2023-02-11T02:15:57.154Z,0.53
2023-02-11T02:18:59.431Z,0.53
2023-02-11T02:21:45.074Z,0.54
2023-02-11T02:24:50.547Z,0.64
2023-02-11T02:27:32.482Z,0.77
2023-02-11T02:30:14.314Z,0.87
2023-02-11T02:32:57.744Z,0.97
2023-02-11T02:35:30.347Z,1.06
2023-02-11T02:38:06.236Z,1.12
2023-02-11T02:40:47.880Z,1.16
2023-02-11T02:43:14.531Z,1.18
2023-02-11T02:45:41.285Z,1.17
2023-02-11T02:48:28.779Z,1.15
2023-02-11T02:51:09.594Z,1.12
2023-02-11T02:53:57.985Z,1.09
2023-02-11T02:56:49.112Z,1.03
2023-02-11T02:59:25.187Z,0.98
2023-02-11T03:02:22.772Z,0.94
2023-02-11T03:05:13.926Z,0.89
2023-02-11T03:08:12.503Z,0.84
2023-02-11T03:10:42.638Z,0.82
2023-02-11T03:13:10.313Z,0.78
2023-02-11T03:15:42.549Z,0.74
2023-02-11T03:18:11.462Z,0.71
2023-02-11T03:20:38.706Z,0.72
2023-02-11T03:23:11.706Z,0.73
2023-02-11T03:25:41.890Z,0.72
2023-02-11T03:28:15.395Z,0.80
2023-02-11T03:31:00.400Z,0.89
2023-02-11T03:33:34.519Z,0.97
2023-02-11T03:36:08.286Z,1.05
2023-02-11T03:38:38.301Z,1.13
2023-02-11T03:41:05.644Z,1.18
2023-02-11T03:43:36.440Z,1.20
2023-02-11T03:46:04.015Z,1.22
2023-02-11T03:48:36.457Z,1.20
2023-02-11T03:51:05.403Z,1.18
2023-02-11T03:53:32.293Z,1.15
2023-02-11T03:56:00.789Z,1.11
2023-02-11T03:58:27.821Z,1.11
2023-02-11T04:00:54.789Z,1.10
2023-02-11T04:03:21.877Z,1.09
2023-02-11T04:05:49.118Z,1.06
2023-02-11T04:08:16.320Z,1.04
2023-02-11T04:10:43.250Z,0.99
2023-02-11T04:13:10.387Z,0.96
2023-02-11T04:15:37.771Z,0.94
2023-02-11T04:18:06.805Z,0.92
2023-02-11T04:20:33.727Z,0.89
2023-02-11T04:23:00.742Z,0.88
2023-02-11T04:25:28.607Z,0.95
2023-02-11T04:27:55.455Z,1.04
2023-02-11T04:30:22.535Z,1.14
2023-02-11T04:32:49.254Z,1.23
2023-02-11T04:35:16.727Z,1.34
2023-02-11T04:37:43.648Z,1.40
2023-02-11T04:40:10.609Z,1.43
2023-02-11T04:42:37.669Z,1.43
2023-02-11T04:45:05.673Z,1.42
2023-02-11T04:47:33.534Z,1.42
2023-02-11T04:50:00.464Z,1.41
2023-02-11T04:52:27.343Z,1.38
2023-02-11T04:54:54.201Z,1.36
2023-02-11T04:57:20.901Z,1.32
2023-02-11T04:59:48.243Z,1.29
2023-02-11T05:02:15.112Z,1.25
2023-02-11T05:04:42.980Z,1.23
2023-02-11T05:07:09.661Z,1.19
2023-02-11T05:09:39.973Z,1.15
2023-02-11T05:12:06.943Z,1.13
2023-02-11T05:14:33.892Z,1.09
2023-02-11T05:17:02.247Z,1.05
2023-02-11T05:19:31.539Z,1.09
2023-02-11T05:22:03.142Z,1.18
2023-02-11T05:24:32.018Z,1.26
2023-02-11T05:26:59.183Z,1.34
2023-02-11T05:29:26.064Z,1.40
2023-02-11T05:31:53.418Z,1.43
2023-02-11T05:34:20.286Z,1.44
2023-02-11T05:36:47.031Z,1.41
2023-02-11T05:39:13.921Z,1.39
2023-02-11T05:41:40.610Z,1.36
2023-02-11T05:44:07.378Z,1.32
2023-02-11T05:46:34.131Z,1.28
2023-02-11T05:49:00.826Z,1.25
2023-02-11T05:51:27.622Z,1.22
2023-02-11T05:53:54.481Z,1.19
2023-02-11T05:56:21.093Z,1.16
2023-02-11T05:58:47.941Z,1.14
2023-02-11T06:01:14.689Z,1.12
2023-02-11T06:03:41.607Z,1.11
2023-02-11T06:06:11.939Z,1.09
2023-02-11T06:08:40.597Z,1.08
2023-02-11T06:11:07.690Z,1.06
2023-02-11T06:13:36.149Z,1.05
2023-02-11T06:16:03.077Z,1.10
2023-02-11T06:18:29.952Z,1.21
2023-02-11T06:20:56.979Z,1.30
2023-02-11T06:23:23.828Z,1.36
2023-02-11T06:25:53.368Z,1.37
2023-02-11T06:28:20.528Z,1.38
2023-02-11T06:30:48.046Z,1.37
2023-02-11T06:33:15.344Z,1.35
2023-02-11T06:35:41.990Z,1.33
2023-02-11T06:38:09.007Z,1.31
2023-02-11T06:40:35.711Z,1.27
2023-02-11T06:43:03.136Z,1.24
2023-02-11T06:45:30.825Z,1.23
2023-02-11T06:47:57.679Z,1.25
2023-02-11T06:50:25.039Z,1.28
2023-02-11T06:52:53.187Z,1.30
2023-02-11T06:55:20.192Z,1.32
2023-02-11T06:57:48.201Z,1.34
2023-02-11T07:00:15.800Z,1.38
2023-02-11T07:02:42.606Z,1.40
2023-02-11T07:05:09.726Z,1.45
2023-02-11T07:07:36.611Z,1.58
2023-02-11T07:10:04.033Z,1.69
2023-02-11T07:12:31.389Z,1.77
2023-02-11T07:14:58.513Z,1.83
2023-02-11T07:17:25.337Z,1.87
2023-02-11T07:19:53.408Z,1.90
2023-02-11T07:22:20.148Z,1.94
2023-02-11T07:24:47.506Z,1.97
2023-02-11T07:27:14.377Z,1.96
2023-02-11T07:29:41.698Z,1.95
2023-02-11T07:32:08.453Z,1.95
2023-02-11T07:34:35.323Z,1.96
2023-02-11T07:37:02.400Z,1.96
2023-02-11T07:39:29.306Z,1.95
2023-02-11T07:41:56.428Z,1.96
2023-02-11T07:44:25.065Z,1.96
2023-02-11T07:46:52.531Z,1.98
2023-02-11T07:49:19.734Z,1.99
2023-02-11T07:51:48.583Z,1.98
2023-02-11T07:54:15.433Z,1.96
2023-02-11T07:56:42.415Z,1.97
2023-02-11T08:01:28.916Z,1.92
2023-02-11T08:03:58.061Z,2.07
2023-02-11T08:06:28.089Z,2.08
2023-02-11T08:08:56.443Z,2.06
2023-02-11T08:11:27.606Z,2.04
2023-02-11T08:13:56.160Z,2.06
2023-02-11T08:16:29.404Z,2.08
2023-02-11T08:18:59.482Z,2.08
2023-02-11T08:21:28.566Z,2.08
2023-02-11T08:23:57.261Z,2.10
2023-02-11T08:26:28.773Z,2.10
2023-02-11T08:28:57.849Z,2.11
2023-02-11T08:31:36.851Z,2.13
2023-02-11T08:34:06.132Z,2.22
2023-02-11T08:36:36.176Z,2.36
2023-02-11T08:39:18.702Z,2.47
2023-02-11T08:41:50.039Z,2.58
2023-02-11T08:44:21.444Z,2.66
2023-02-11T08:46:51.568Z,2.68
2023-02-11T08:49:19.969Z,2.68
2023-02-11T08:51:48.320Z,2.68
2023-02-11T08:54:16.611Z,2.68
2023-02-11T08:56:47.961Z,2.69
2023-02-11T08:59:17.933Z,2.71
2023-02-11T09:01:47.901Z,2.75
2023-02-11T09:04:16.295Z,2.77
2023-02-11T09:06:45.037Z,2.77
2023-02-11T09:09:14.193Z,2.76
2023-02-11T09:11:43.068Z,2.76
2023-02-11T09:14:19.546Z,2.75
2023-02-11T09:16:48.110Z,2.76
2023-02-11T09:19:19.241Z,2.81
2023-02-11T09:21:47.722Z,2.89
2023-02-11T09:24:16.209Z,2.96
2023-02-11T09:26:44.589Z,3.02
2023-02-11T09:29:12.969Z,3.04
2023-02-11T09:31:42.500Z,3.05
2023-02-11T09:34:11.274Z,3.04
2023-02-11T09:36:40.666Z,3.02
2023-02-11T09:39:13.078Z,3.02
2023-02-11T09:41:49.625Z,2.97
2023-02-11T09:44:44.407Z,2.94
2023-02-11T09:47:29.468Z,2.93
2023-02-11T09:50:05.644Z,2.92
2023-02-11T09:52:52.710Z,2.92
2023-02-11T09:55:23.492Z,2.93
2023-02-11T09:57:53.434Z,2.95
2023-02-11T10:00:32.643Z,3.02
2023-02-11T10:03:00.916Z,3.10
2023-02-11T10:06:07.688Z,3.12
2023-02-11T10:08:50.508Z,3.13
2023-02-11T10:11:34.244Z,3.18
2023-02-11T10:14:37.849Z,3.17
2023-02-11T10:17:06.146Z,3.16
2023-02-11T10:20:01.442Z,3.14
2023-02-11T10:22:44.458Z,3.09
2023-02-11T10:25:59.332Z,3.05
2023-02-11T10:28:33.041Z,3.09
2023-02-11T10:31:10.334Z,3.19
2023-02-11T10:33:59.690Z,3.29
2023-02-11T10:36:30.548Z,3.37
2023-02-11T10:39:03.411Z,3.39
2023-02-11T10:41:38.153Z,3.38
2023-02-11T10:44:06.937Z,3.37
2023-02-11T10:46:37.068Z,3.35
2023-02-11T10:49:05.526Z,3.34
2023-02-11T10:51:34.627Z,3.34
2023-02-11T10:54:06.344Z,3.33
2023-02-11T10:56:38.445Z,3.32
2023-02-11T10:59:31.813Z,3.30
2023-02-11T11:02:01.535Z,3.36
2023-02-11T11:04:30.005Z,3.44
2023-02-11T11:07:18.634Z,3.48
2023-02-11T11:09:47.006Z,3.48
2023-02-11T11:12:30.416Z,3.45
2023-02-11T11:15:23.280Z,3.43
2023-02-11T11:18:22.885Z,3.41
2023-02-11T11:21:03.015Z,3.42
2023-02-11T11:23:31.363Z,3.46
2023-02-11T11:26:13.462Z,3.47
2023-02-11T11:28:58.951Z,3.49
2023-02-11T11:31:45.484Z,3.60
2023-02-11T11:34:22.683Z,3.72
2023-02-11T11:36:51.012Z,3.79
2023-02-11T11:39:24.914Z,3.82
2023-02-11T11:42:00.644Z,3.80
2023-02-11T11:44:33.241Z,3.77
2023-02-11T11:47:21.488Z,3.73
2023-02-11T11:49:52.635Z,3.69
2023-02-11T11:52:36.382Z,3.67
2023-02-11T11:55:09.574Z,3.66
2023-02-11T11:57:38.784Z,3.65
2023-02-11T12:00:21.062Z,3.65
2023-02-11T12:03:27.166Z,3.68
2023-02-11T12:05:58.678Z,3.78
2023-02-11T12:08:49.936Z,3.91
2023-02-11T12:11:26.389Z,4.02
2023-02-11T12:14:25.795Z,4.13
2023-02-11T12:16:57.235Z,4.28
2023-02-11T12:19:47.203Z,4.44
2023-02-11T12:22:22.097Z,4.58
2023-02-11T12:25:00.552Z,4.67
2023-02-11T12:28:00.803Z,4.79
2023-02-11T12:31:08.225Z,4.85
2023-02-11T12:34:25.023Z,4.85
2023-02-11T12:36:56.110Z,4.80
2023-02-11T12:39:35.462Z,4.74
2023-02-11T12:42:28.777Z,4.70
2023-02-11T12:44:57.018Z,4.66
2023-02-11T12:47:31.320Z,4.62
2023-02-11T12:50:04.818Z,4.67
2023-02-11T12:52:53.278Z,4.75
2023-02-11T12:55:28.424Z,4.90
2023-02-11T12:57:58.379Z,5.11
2023-02-11T13:00:36.329Z,5.10
2023-02-11T13:03:04.811Z,5.02
2023-02-11T13:05:38.594Z,4.92
2023-02-11T13:08:18.257Z,4.82
2023-02-11T13:10:48.673Z,4.75
2023-02-11T13:13:20.058Z,4.87
2023-02-11T13:15:56.316Z,5.42
2023-02-11T13:18:40.242Z,5.43
2023-02-11T13:21:16.659Z,5.49
2023-02-11T13:23:55.062Z,5.41
2023-02-11T13:26:27.759Z,5.26
2023-02-11T13:29:21.482Z,5.10
2023-02-11T13:32:07.497Z,4.96
2023-02-11T13:34:42.054Z,4.88
2023-02-11T13:37:19.896Z,4.98
2023-02-11T15:48:13.313Z,2.98
2023-02-11T15:50:42.823Z,3.15
2023-02-11T15:53:31.886Z,3.17
2023-02-11T15:56:14.599Z,3.19
2023-02-11T15:58:43.914Z,3.20
2023-02-11T16:01:12.895Z,3.20
2023-02-11T16:03:42.016Z,3.20
2023-02-11T16:06:23.888Z,3.18
2023-02-11T16:09:08.239Z,3.16
2023-02-11T16:11:54.032Z,3.14
2023-02-11T16:14:31.161Z,3.13
2023-02-11T16:17:13.413Z,3.11
2023-02-11T16:19:46.443Z,3.11
2023-02-11T16:22:21.024Z,3.11
2023-02-11T16:24:49.819Z,3.11
2023-02-11T16:27:25.056Z,3.12
2023-02-11T16:29:53.339Z,3.13
2023-02-11T16:32:23.874Z,3.11
2023-02-11T16:34:53.236Z,3.10
2023-02-11T16:37:21.435Z,3.11
2023-02-11T16:39:53.502Z,3.11
2023-02-11T16:42:21.987Z,3.08
2023-02-11T16:44:50.275Z,3.07
2023-02-11T16:47:28.371Z,3.07
2023-02-11T16:49:57.056Z,3.08
2023-02-11T16:52:25.225Z,3.08
2023-02-11T16:54:54.742Z,3.08
2023-02-11T17:00:15.727Z,2.97
2023-02-11T17:02:43.319Z,3.08
2023-02-11T17:05:19.374Z,3.09
2023-02-11T17:07:47.855Z,3.10
2023-02-11T17:10:16.235Z,3.10
2023-02-11T17:12:43.689Z,3.12
2023-02-11T17:15:10.640Z,3.12
2023-02-11T17:17:37.682Z,3.11
2023-02-11T17:20:06.275Z,3.10
2023-02-11T17:22:33.215Z,3.08
2023-02-11T17:25:00.058Z,3.08
2023-02-11T17:27:30.274Z,3.07
2023-02-11T17:29:57.184Z,3.07
2023-02-11T17:32:24.390Z,3.08
2023-02-11T17:34:52.953Z,3.08
2023-02-11T17:37:20.191Z,3.08
2023-02-11T17:39:47.123Z,3.09
2023-02-11T17:42:14.421Z,3.10
2023-02-11T17:44:43.605Z,3.12
2023-02-11T17:47:11.572Z,3.13
2023-02-11T17:49:38.977Z,3.14
2023-02-11T17:52:06.085Z,3.14
2023-02-11T17:54:33.821Z,3.14
2023-02-11T17:57:00.772Z,3.15
2023-02-11T17:59:31.052Z,3.15
2023-02-11T18:01:58.053Z,3.15
2023-02-11T18:04:25.254Z,3.17
2023-02-11T18:06:53.058Z,3.19
2023-02-11T18:09:20.121Z,3.19
2023-02-11T18:11:47.880Z,3.19
2023-02-11T18:14:14.623Z,3.21
2023-02-11T18:16:45.071Z,3.21
2023-02-11T18:19:12.217Z,3.22
2023-02-11T18:21:43.047Z,3.22
2023-02-11T18:24:11.109Z,3.22
2023-02-11T18:26:38.054Z,3.23
2023-02-11T18:29:06.434Z,3.23
2023-02-11T18:31:34.841Z,3.24
2023-02-11T18:34:03.689Z,3.25
2023-02-11T18:36:30.655Z,3.25
2023-02-11T18:39:00.083Z,3.25
2023-02-11T18:41:27.417Z,3.28
2023-02-11T18:43:57.778Z,3.29
2023-02-11T18:46:24.485Z,3.29
2023-02-11T18:48:55.838Z,3.27
2023-02-11T18:51:22.874Z,3.27
2023-02-11T18:53:49.719Z,3.25
2023-02-11T18:56:18.720Z,3.25
